• Join FlightAware (Why Join?)
  • Login
  • US Flag 
05:44AM EDT


 

Airport Tracker/Info


-or-


 

Live Flight TrackerFlight Track Log ✈ CTL312 ✈ 29-Apr-2013 ✈ KBKL - KHAO

Flight Track Log - Related Links

Times and Time Zones

All times are in EDT time to prevent confusion due to time zone crossing. See the CTL312 flight status page for this flight to view local times or setup timezone preferences in your user account.

Time Position Orientation Groundspeed Altitude Reporting Facility
EDT Latitude Longitude Course Direction KTS MPH feet Rate Location/Type
06:41PM 41.5314 -81.6814 338° Northwest 110 127 1,200  Level Cleveland Center
06:41PM 41.5481 -81.6903 338° Northwest 123 142 1,700 480 Climbing Cleveland Center
06:42PM 41.5856 -81.7103 338° Northwest 160 184 2,000 720 Climbing Cleveland Center
06:43PM 41.6247 -81.7303 339° North 145 167 3,200 1,140 Climbing Cleveland Center
06:44PM 41.6433 -81.7697 302° West 129 148 4,300 960 Climbing Cleveland Center
06:45PM 41.6386 -81.8167 262° West 124 143 5,200 780 Climbing Cleveland Center
06:46PM 41.6256 -81.8664 251° West 139 160 6,000 360 Climbing Cleveland Center
06:47PM 41.5917 -81.9075 222° Southwest 167 192 6,000 -60 Level Cleveland Center
06:48PM 41.5600 -81.9428 220° Southwest 165 190 5,900  Descending Cleveland Center
06:49PM 41.5303 -81.9867 228° Southwest 166 191 6,000  Climbing Cleveland Center
06:50PM 41.4944 -82.0247 219° Southwest 164 189 6,000  Level Cleveland Center
06:51PM 41.4603 -82.0711 226° Southwest 164 189 6,000  Level Cleveland Center
06:52PM 41.4244 -82.1117 220° Southwest 164 189 6,000  Level Cleveland Center
06:53PM 41.3906 -82.1581 226° Southwest 165 190 6,000  Level Cleveland Center
06:54PM 41.3586 -82.1986 224° Southwest 164 189 6,000  Level Cleveland Center
06:55PM 41.3289 -82.2422 228° Southwest 162 186 6,000  Level Cleveland Center
06:57PM 41.2829 -82.2874 216° Southwest  Level FlightAware Approximate
07:04PM 41.0317 -82.5424 219° Southwest  Level FlightAware Approximate
07:05PM 40.9967 -82.5803 219° Southwest  Level FlightAware Approximate
07:06PM 40.9618 -82.6182 219° Southwest  Level FlightAware Approximate
07:07PM 40.9269 -82.6560 219° Southwest  Level FlightAware Approximate
07:08PM 40.8919 -82.6937 219° Southwest  Level FlightAware Approximate
07:09PM 40.8570 -82.7314 219° Southwest  Level FlightAware Approximate
07:10PM 40.8220 -82.7691 219° Southwest  Level FlightAware Approximate
07:11PM 40.7870 -82.8068 219° Southwest  Level FlightAware Approximate
07:11PM 40.8167 -82.8889 219° Southwest 167 192 6,000  Level Indianapolis Center
07:12PM 40.7520 -82.8444 219° Southwest  Level FlightAware Approximate
07:12PM 40.7817 -82.9303 222° Southwest 168 193 6,000  Level Indianapolis Center
07:13PM 40.7170 -82.8819 219° Southwest  Level FlightAware Approximate
07:13PM 40.7464 -82.9725 222° Southwest 169 194 6,000  Level Indianapolis Center
07:14PM 40.6820 -82.9195 219° Southwest  Level FlightAware Approximate
07:14PM 40.7100 -83.0144 221° Southwest 171 197 6,000  Level Indianapolis Center
07:15PM 40.6469 -82.9570 219° Southwest  Level FlightAware Approximate
07:15PM 40.6681 -83.0608 220° Southwest 167 192 6,000  Level Indianapolis Center
07:16PM 40.6119 -82.9944 219° Southwest  Level FlightAware Approximate
07:16PM 40.6311 -83.1011 220° Southwest 168 193 6,000  Level Indianapolis Center
07:17PM 40.5950 -83.1403 219° Southwest 169 194 6,000  Level Indianapolis Center
07:18PM 40.5600 -83.1828 223° Southwest 167 192 6,000  Level Indianapolis Center
07:19PM 40.5244 -83.2236 221° Southwest 168 193 6,000  Level Indianapolis Center
07:20PM 40.4894 -83.2656 222° Southwest 169 194 6,000  Level Indianapolis Center
07:21PM 40.4617 -83.2944 218° Southwest 167 192 6,000  Level Indianapolis Center
07:21PM 40.4533 -83.3033 219° Southwest 166 191 6,000  Level Indianapolis Center
07:22PM 40.4275 -83.3342 222° Southwest 167 192 6,000  Level Indianapolis Center
07:22PM 40.4175 -83.3439 217° Southwest 168 193 6,000  Level Indianapolis Center
07:23PM 40.3911 -83.3764 223° Southwest 169 194 6,000  Level Indianapolis Center
07:23PM 40.3822 -83.3844 215° Southwest 168 193 6,000  Level Indianapolis Center
07:23PM 40.3592 -83.4108 221° Southwest 167 192 6,000  Level Indianapolis Center
07:24PM 40.3458 -83.4236 216° Southwest 168 193 6,000  Level Indianapolis Center
07:25PM 40.3206 -83.4553 224° Southwest 166 191 6,000  Level Indianapolis Center
07:25PM 40.3042 -83.4711 216° Southwest 168 193 6,000  Level Indianapolis Center
07:26PM 40.2842 -83.4944 222° Southwest 167 192 6,000  Level Indianapolis Center
07:26PM 40.2694 -83.5117 222° Southwest 167 192 6,000  Level Indianapolis Center
07:27PM 40.2342 -83.5511 220° Southwest 167 192 6,000  Level Indianapolis Center
07:28PM 40.1903 -83.6058 224° Southwest 168 193 6,100  Climbing Indianapolis Center
07:29PM 40.1556 -83.6481 223° Southwest 170 196 6,100  Level Indianapolis Center
07:30PM 40.1192 -83.6872 219° Southwest 168 193 6,100 -60 Level Indianapolis Center
07:31PM 40.0925 -83.7136 217° Southwest 170 196 6,000 -60 Descending Indianapolis Center
07:32PM 40.0561 -83.7522 219° Southwest 169 194 6,000  Level Indianapolis Center
07:33PM 40.0139 -83.7994 221° Southwest 170 196 6,000 -60 Level Indianapolis Center
07:34PM 39.9789 -83.8394 221° Southwest 168 193 5,900  Descending Indianapolis Center
07:35PM 39.9414 -83.8797 219° Southwest 167 192 6,100 60 Climbing Indianapolis Center
07:36PM 39.9047 -83.9214 221° Southwest 168 193 6,100 -60 Level Indianapolis Center
07:37PM 39.8719 -83.9586 221° Southwest 167 192 6,000  Descending Indianapolis Center
07:38PM 39.8586 -83.9753 224° Southwest 168 193 6,100 60 Climbing Indianapolis Center
07:38PM 39.8333 -84.0047 222° Southwest 169 194 6,100  Level Indianapolis Center
07:39PM 39.7989 -84.0436 221° Southwest 171 197 6,100  Level Indianapolis Center
07:40PM 39.7625 -84.0822 219° Southwest 167 192 6,100  Level Indianapolis Center
07:41PM 39.7303 -84.1189 221° Southwest 168 193 6,100  Level Indianapolis Center
07:42PM 39.6892 -84.1622 219° Southwest 168 193 6,100 -300 Level Indianapolis Center
07:44PM 39.6517 -84.2086 224° Southwest 170 196 5,500 -600 Descending Indianapolis Center
07:45PM 39.6131 -84.2542 222° Southwest 178 205 4,800 -720 Descending Indianapolis Center
07:46PM 39.5736 -84.2992 221° Southwest 184 212 4,100 -420 Descending Indianapolis Center
07:47PM 39.5350 -84.3406 220° Southwest 182 209 4,000 -540 Descending Indianapolis Center
07:48PM 39.4975 -84.3794 219° Southwest 175 201 3,100 -780 Descending Indianapolis Center
07:49PM 39.4583 -84.4164 216° Southwest 174 200 2,500 -300 Descending Indianapolis Center
07:50PM 39.4133 -84.4542 213° Southwest 173 199 2,500  Level Indianapolis Center